sensor_id;sensor_type;location;lat;lon;timestamp;pressure;altitude;pressure_sealevel;temperature;humidity
10261;BME280;5175;42.606;23.388;2022-12-18T00:00:05;94450.94;;;8.07;100.00
10261;BME280;5175;42.606;23.388;2022-12-18T00:02:32;94455.44;;;8.06;100.00
10261;BME280;5175;42.606;23.388;2022-12-18T00:05:00;94457.28;;;7.84;100.00
10261;BME280;5175;42.606;23.388;2022-12-18T00:07:27;94458.03;;;7.80;100.00
10261;BME280;5175;42.606;23.388;2022-12-18T00:09:54;94464.34;;;7.57;100.00
10261;BME280;5175;42.606;23.388;2022-12-18T00:12:20;94472.84;;;7.59;100.00
10261;BME280;5175;42.606;23.388;2022-12-18T00:14:47;94461.38;;;7.37;100.00
10261;BME280;5175;42.606;23.388;2022-12-18T00:17:14;94471.97;;;7.53;100.00
10261;BME280;5175;42.606;23.388;2022-12-18T00:19:40;94479.53;;;7.45;100.00
10261;BME280;5175;42.606;23.388;2022-12-18T00:22:08;94476.16;;;7.33;100.00
10261;BME280;5175;42.606;23.388;2022-12-18T00:24:35;94482.75;;;7.30;100.00
10261;BME280;5175;42.606;23.388;2022-12-18T00:27:02;94483.31;;;7.32;100.00
10261;BME280;5175;42.606;23.388;2022-12-18T00:29:29;94468.38;;;7.26;100.00
10261;BME280;5175;42.606;23.388;2022-12-18T00:31:55;94483.06;;;7.17;100.00
10261;BME280;5175;42.606;23.388;2022-12-18T00:34:22;94492.38;;;7.20;100.00
10261;BME280;5175;42.606;23.388;2022-12-18T00:36:49;94486.91;;;7.10;100.00
10261;BME280;5175;42.606;23.388;2022-12-18T00:39:17;94493.78;;;6.94;100.00
10261;BME280;5175;42.606;23.388;2022-12-18T00:41:43;94500.47;;;6.68;100.00
10261;BME280;5175;42.606;23.388;2022-12-18T00:44:27;94491.63;;;6.63;100.00
10261;BME280;5175;42.606;23.388;2022-12-18T00:46:54;94497.63;;;6.58;100.00
10261;BME280;5175;42.606;23.388;2022-12-18T00:49:21;94501.44;;;6.62;100.00
10261;BME280;5175;42.606;23.388;2022-12-18T00:51:48;94504.88;;;6.63;100.00
10261;BME280;5175;42.606;23.388;2022-12-18T00:54:17;94498.34;;;6.54;100.00
10261;BME280;5175;42.606;23.388;2022-12-18T00:56:44;94507.97;;;6.71;100.00
10261;BME280;5175;42.606;23.388;2022-12-18T00:59:11;94506.50;;;6.64;100.00
10261;BME280;5175;42.606;23.388;2022-12-18T01:01:37;94512.16;;;6.67;100.00
10261;BME280;5175;42.606;23.388;2022-12-18T01:04:04;94516.94;;;6.70;100.00
10261;BME280;5175;42.606;23.388;2022-12-18T01:06:31;94508.44;;;6.68;100.00
10261;BME280;5175;42.606;23.388;2022-12-18T01:08:58;94519.19;;;6.62;100.00
10261;BME280;5175;42.606;23.388;2022-12-18T01:11:26;94518.72;;;6.65;100.00
10261;BME280;5175;42.606;23.388;2022-12-18T01:13:53;94520.56;;;6.64;100.00
10261;BME280;5175;42.606;23.388;2022-12-18T01:16:20;94518.56;;;6.71;100.00
10261;BME280;5175;42.606;23.388;2022-12-18T01:18:51;94521.31;;;6.76;100.00
10261;BME280;5175;42.606;23.388;2022-12-18T01:21:18;94521.47;;;6.70;100.00
10261;BME280;5175;42.606;23.388;2022-12-18T01:23:45;94528.63;;;6.58;100.00
10261;BME280;5175;42.606;23.388;2022-12-18T01:26:14;94538.00;;;6.49;100.00
10261;BME280;5175;42.606;23.388;2022-12-18T01:28:42;94531.19;;;6.53;100.00
10261;BME280;5175;42.606;23.388;2022-12-18T01:31:16;94532.75;;;6.65;100.00
10261;BME280;5175;42.606;23.388;2022-12-18T01:33:43;94535.09;;;6.62;100.00
10261;BME280;5175;42.606;23.388;2022-12-18T01:36:21;94538.16;;;6.70;100.00
10261;BME280;5175;42.606;23.388;2022-12-18T01:38:49;94524.75;;;6.49;100.00
10261;BME280;5175;42.606;23.388;2022-12-18T01:41:18;94526.44;;;6.26;100.00
10261;BME280;5175;42.606;23.388;2022-12-18T01:43:50;94536.78;;;6.28;100.00
10261;BME280;5175;42.606;23.388;2022-12-18T01:46:19;94557.75;;;6.29;100.00
10261;BME280;5175;42.606;23.388;2022-12-18T01:48:48;94547.25;;;6.35;100.00
10261;BME280;5175;42.606;23.388;2022-12-18T01:51:16;94551.06;;;6.39;100.00
10261;BME280;5175;42.606;23.388;2022-12-18T01:53:44;94551.88;;;6.39;100.00
10261;BME280;5175;42.606;23.388;2022-12-18T01:56:15;94550.50;;;6.37;100.00
10261;BME280;5175;42.606;23.388;2022-12-18T01:58:50;94561.56;;;6.34;100.00
10261;BME280;5175;42.606;23.388;2022-12-18T02:01:19;94562.16;;;6.01;100.00
10261;BME280;5175;42.606;23.388;2022-12-18T02:03:46;94558.94;;;6.10;100.00
10261;BME280;5175;42.606;23.388;2022-12-18T02:06:15;94564.69;;;6.07;100.00
10261;BME280;5175;42.606;23.388;2022-12-18T02:08:49;94565.94;;;6.16;100.00
10261;BME280;5175;42.606;23.388;2022-12-18T02:11:25;94551.91;;;6.04;100.00
10261;BME280;5175;42.606;23.388;2022-12-18T02:14:05;94568.38;;;6.06;100.00
10261;BME280;5175;42.606;23.388;2022-12-18T02:16:40;94570.78;;;5.96;100.00
10261;BME280;5175;42.606;23.388;2022-12-18T02:19:20;94575.75;;;5.93;100.00
10261;BME280;5175;42.606;23.388;2022-12-18T02:21:56;94578.28;;;5.88;100.00
10261;BME280;5175;42.606;23.388;2022-12-18T02:24:30;94570.28;;;5.76;100.00
10261;BME280;5175;42.606;23.388;2022-12-18T02:27:04;94558.09;;;5.63;100.00
10261;BME280;5175;42.606;23.388;2022-12-18T02:29:35;94581.22;;;5.68;100.00
10261;BME280;5175;42.606;23.388;2022-12-18T02:32:08;94574.66;;;5.70;100.00
10261;BME280;5175;42.606;23.388;2022-12-18T02:34:38;94575.69;;;5.81;100.00
10261;BME280;5175;42.606;23.388;2022-12-18T02:37:09;94580.94;;;5.88;100.00
10261;BME280;5175;42.606;23.388;2022-12-18T02:39:38;94576.09;;;5.85;100.00
10261;BME280;5175;42.606;23.388;2022-12-18T02:42:08;94567.22;;;5.91;100.00
10261;BME280;5175;42.606;23.388;2022-12-18T02:44:41;94577.47;;;5.87;100.00
10261;BME280;5175;42.606;23.388;2022-12-18T02:47:09;94588.50;;;5.96;100.00
10261;BME280;5175;42.606;23.388;2022-12-18T02:49:44;94566.44;;;5.90;100.00
10261;BME280;5175;42.606;23.388;2022-12-18T02:52:21;94601.75;;;5.96;100.00
10261;BME280;5175;42.606;23.388;2022-12-18T02:54:59;94591.41;;;5.94;100.00
10261;BME280;5175;42.606;23.388;2022-12-18T02:57:34;94589.56;;;5.95;100.00
10261;BME280;5175;42.606;23.388;2022-12-18T03:00:05;94596.13;;;6.04;100.00
10261;BME280;5175;42.606;23.388;2022-12-18T03:02:37;94596.00;;;5.87;100.00
10261;BME280;5175;42.606;23.388;2022-12-18T03:05:11;94600.63;;;5.92;100.00
10261;BME280;5175;42.606;23.388;2022-12-18T03:07:42;94597.84;;;5.87;100.00
10261;BME280;5175;42.606;23.388;2022-12-18T03:10:14;94587.09;;;5.82;100.00
10261;BME280;5175;42.606;23.388;2022-12-18T03:12:48;94598.91;;;5.97;100.00
10261;BME280;5175;42.606;23.388;2022-12-18T03:15:20;94609.84;;;6.01;100.00
10261;BME280;5175;42.606;23.388;2022-12-18T03:17:53;94613.28;;;6.01;100.00
10261;BME280;5175;42.606;23.388;2022-12-18T03:20:25;94600.91;;;5.84;100.00
10261;BME280;5175;42.606;23.388;2022-12-18T03:22:59;94612.34;;;5.96;100.00
10261;BME280;5175;42.606;23.388;2022-12-18T03:25:31;94616.47;;;5.80;100.00
10261;BME280;5175;42.606;23.388;2022-12-18T03:28:02;94623.47;;;5.75;100.00
10261;BME280;5175;42.606;23.388;2022-12-18T03:30:31;94624.88;;;5.77;100.00
10261;BME280;5175;42.606;23.388;2022-12-18T03:33:04;94624.19;;;5.82;100.00
10261;BME280;5175;42.606;23.388;2022-12-18T03:35:34;94617.13;;;5.76;100.00
10261;BME280;5175;42.606;23.388;2022-12-18T03:38:04;94632.50;;;5.85;100.00
10261;BME280;5175;42.606;23.388;2022-12-18T03:40:35;94645.94;;;5.84;100.00
10261;BME280;5175;42.606;23.388;2022-12-18T03:43:08;94654.13;;;5.82;100.00
10261;BME280;5175;42.606;23.388;2022-12-18T03:45:40;94667.63;;;5.92;100.00
10261;BME280;5175;42.606;23.388;2022-12-18T03:48:14;94654.84;;;5.89;100.00
10261;BME280;5175;42.606;23.388;2022-12-18T03:50:46;94658.06;;;5.91;100.00
10261;BME280;5175;42.606;23.388;2022-12-18T03:53:23;94658.44;;;5.65;100.00
10261;BME280;5175;42.606;23.388;2022-12-18T03:55:51;94649.47;;;5.66;100.00
10261;BME280;5175;42.606;23.388;2022-12-18T03:58:23;94657.41;;;5.66;100.00
10261;BME280;5175;42.606;23.388;2022-12-18T04:00:52;94658.03;;;5.50;100.00
10261;BME280;5175;42.606;23.388;2022-12-18T04:03:22;94657.25;;;5.49;100.00
10261;BME280;5175;42.606;23.388;2022-12-18T04:05:51;94663.13;;;5.22;100.00
10261;BME280;5175;42.606;23.388;2022-12-18T04:08:19;94662.81;;;5.30;100.00
10261;BME280;5175;42.606;23.388;2022-12-18T04:10:47;94675.34;;;5.34;100.00
10261;BME280;5175;42.606;23.388;2022-12-18T04:13:23;94676.72;;;5.25;100.00
10261;BME280;5175;42.606;23.388;2022-12-18T04:15:50;94680.72;;;5.16;100.00
10261;BME280;5175;42.606;23.388;2022-12-18T04:18:17;94644.03;;;4.72;100.00
10261;BME280;5175;42.606;23.388;2022-12-18T04:20:44;94674.47;;;5.11;100.00
10261;BME280;5175;42.606;23.388;2022-12-18T04:23:11;94677.63;;;5.01;100.00
10261;BME280;5175;42.606;23.388;2022-12-18T04:25:37;94687.63;;;4.99;100.00
10261;BME280;5175;42.606;23.388;2022-12-18T04:28:04;94681.06;;;5.01;100.00
10261;BME280;5175;42.606;23.388;2022-12-18T04:30:32;94668.63;;;4.90;100.00
10261;BME280;5175;42.606;23.388;2022-12-18T04:32:59;94693.97;;;4.98;100.00
10261;BME280;5175;42.606;23.388;2022-12-18T04:35:26;94700.84;;;4.99;100.00
10261;BME280;5175;42.606;23.388;2022-12-18T04:37:53;94693.97;;;4.98;100.00
10261;BME280;5175;42.606;23.388;2022-12-18T04:40:20;94702.66;;;4.98;100.00
10261;BME280;5175;42.606;23.388;2022-12-18T04:42:46;94700.94;;;4.74;100.00
10261;BME280;5175;42.606;23.388;2022-12-18T04:45:13;94700.19;;;4.67;100.00
10261;BME280;5175;42.606;23.388;2022-12-18T04:47:41;94705.09;;;4.64;100.00
10261;BME280;5175;42.606;23.388;2022-12-18T04:50:08;94710.44;;;4.75;100.00
10261;BME280;5175;42.606;23.388;2022-12-18T04:52:35;94712.38;;;4.68;100.00
10261;BME280;5175;42.606;23.388;2022-12-18T04:55:01;94718.22;;;4.70;100.00
10261;BME280;5175;42.606;23.388;2022-12-18T04:57:28;94727.56;;;4.73;100.00
10261;BME280;5175;42.606;23.388;2022-12-18T04:59:55;94716.22;;;4.48;100.00
10261;BME280;5175;42.606;23.388;2022-12-18T05:02:21;94715.75;;;4.32;100.00
10261;BME280;5175;42.606;23.388;2022-12-18T05:04:49;94709.66;;;4.32;100.00
10261;BME280;5175;42.606;23.388;2022-12-18T05:07:16;94733.75;;;4.42;100.00
10261;BME280;5175;42.606;23.388;2022-12-18T05:09:43;94742.13;;;4.39;100.00
10261;BME280;5175;42.606;23.388;2022-12-18T05:12:10;94746.38;;;4.40;100.00
10261;BME280;5175;42.606;23.388;2022-12-18T05:14:37;94748.69;;;4.55;100.00
10261;BME280;5175;42.606;23.388;2022-12-18T05:17:04;94750.91;;;4.33;100.00
10261;BME280;5175;42.606;23.388;2022-12-18T05:19:30;94758.34;;;4.42;100.00
10261;BME280;5175;42.606;23.388;2022-12-18T05:21:59;94762.19;;;4.47;100.00
10261;BME280;5175;42.606;23.388;2022-12-18T05:24:26;94765.16;;;4.57;100.00
10261;BME280;5175;42.606;23.388;2022-12-18T05:26:53;94753.72;;;4.38;100.00
10261;BME280;5175;42.606;23.388;2022-12-18T05:29:20;94765.84;;;4.46;100.00
10261;BME280;5175;42.606;23.388;2022-12-18T05:31:46;94771.94;;;4.46;100.00
10261;BME280;5175;42.606;23.388;2022-12-18T05:34:13;94770.16;;;4.40;100.00
10261;BME280;5175;42.606;23.388;2022-12-18T05:36:40;94781.88;;;4.26;100.00
10261;BME280;5175;42.606;23.388;2022-12-18T05:39:08;94785.69;;;4.30;100.00
10261;BME280;5175;42.606;23.388;2022-12-18T05:41:35;94779.75;;;4.34;100.00
10261;BME280;5175;42.606;23.388;2022-12-18T05:44:02;94785.53;;;4.25;100.00
10261;BME280;5175;42.606;23.388;2022-12-18T05:46:28;94766.78;;;4.08;100.00
10261;BME280;5175;42.606;23.388;2022-12-18T05:48:59;94799.75;;;4.24;100.00
10261;BME280;5175;42.606;23.388;2022-12-18T05:51:26;94801.19;;;4.20;100.00
10261;BME280;5175;42.606;23.388;2022-12-18T05:53:52;94792.72;;;4.11;100.00
10261;BME280;5175;42.606;23.388;2022-12-18T05:56:22;94787.56;;;3.92;100.00
10261;BME280;5175;42.606;23.388;2022-12-18T05:58:52;94805.00;;;3.99;100.00
10261;BME280;5175;42.606;23.388;2022-12-18T06:01:21;94789.03;;;3.88;100.00
10261;BME280;5175;42.606;23.388;2022-12-18T06:03:48;94795.44;;;3.98;100.00
10261;BME280;5175;42.606;23.388;2022-12-18T06:06:15;94779.44;;;3.93;100.00
10261;BME280;5175;42.606;23.388;2022-12-18T06:08:42;94784.13;;;3.91;100.00
10261;BME280;5175;42.606;23.388;2022-12-18T06:11:09;94784.59;;;4.13;100.00
10261;BME280;5175;42.606;23.388;2022-12-18T06:13:38;94816.47;;;4.42;100.00
10261;BME280;5175;42.606;23.388;2022-12-18T06:16:05;94753.59;;;4.02;100.00
10261;BME280;5175;42.606;23.388;2022-12-18T06:18:32;94803.25;;;4.18;100.00
10261;BME280;5175;42.606;23.388;2022-12-18T06:20:59;94824.31;;;4.24;100.00
10261;BME280;5175;42.606;23.388;2022-12-18T06:23:27;94814.81;;;4.23;100.00
10261;BME280;5175;42.606;23.388;2022-12-18T06:25:54;94811.94;;;4.25;100.00
10261;BME280;5175;42.606;23.388;2022-12-18T06:28:21;94824.13;;;4.26;100.00
10261;BME280;5175;42.606;23.388;2022-12-18T06:30:50;94833.91;;;4.19;100.00
10261;BME280;5175;42.606;23.388;2022-12-18T06:33:16;94843.22;;;4.21;100.00
10261;BME280;5175;42.606;23.388;2022-12-18T06:35:43;94837.44;;;4.37;100.00
10261;BME280;5175;42.606;23.388;2022-12-18T06:38:10;94839.28;;;4.37;100.00
10261;BME280;5175;42.606;23.388;2022-12-18T06:40:37;94856.34;;;4.34;100.00
10261;BME280;5175;42.606;23.388;2022-12-18T06:43:04;94850.16;;;4.47;100.00
10261;BME280;5175;42.606;23.388;2022-12-18T06:45:31;94857.50;;;4.45;100.00
10261;BME280;5175;42.606;23.388;2022-12-18T06:47:59;94842.22;;;4.22;100.00
10261;BME280;5175;42.606;23.388;2022-12-18T06:50:26;94849.41;;;4.40;100.00
10261;BME280;5175;42.606;23.388;2022-12-18T06:52:52;94857.19;;;4.60;100.00
10261;BME280;5175;42.606;23.388;2022-12-18T06:55:19;94858.97;;;4.41;100.00
10261;BME280;5175;42.606;23.388;2022-12-18T06:57:46;94848.00;;;4.37;100.00
10261;BME280;5175;42.606;23.388;2022-12-18T07:00:13;94866.66;;;4.49;100.00
10261;BME280;5175;42.606;23.388;2022-12-18T07:02:40;94870.28;;;4.48;100.00
10261;BME280;5175;42.606;23.388;2022-12-18T07:05:08;94856.34;;;4.34;100.00
10261;BME280;5175;42.606;23.388;2022-12-18T07:07:35;94876.75;;;4.52;100.00
10261;BME280;5175;42.606;23.388;2022-12-18T07:10:02;94860.88;;;4.27;100.00
10261;BME280;5175;42.606;23.388;2022-12-18T07:12:29;94868.56;;;4.29;100.00
10261;BME280;5175;42.606;23.388;2022-12-18T07:14:56;94872.22;;;4.34;100.00
10261;BME280;5175;42.606;23.388;2022-12-18T07:17:24;94878.28;;;4.41;100.00
10261;BME280;5175;42.606;23.388;2022-12-18T07:19:50;94877.97;;;4.25;100.00
10261;BME280;5175;42.606;23.388;2022-12-18T07:22:18;94882.59;;;4.29;100.00
10261;BME280;5175;42.606;23.388;2022-12-18T07:24:45;94875.50;;;4.30;100.00
10261;BME280;5175;42.606;23.388;2022-12-18T07:27:12;94889.88;;;4.34;100.00
10261;BME280;5175;42.606;23.388;2022-12-18T07:29:39;94881.75;;;4.35;100.00
10261;BME280;5175;42.606;23.388;2022-12-18T07:32:06;94882.84;;;4.21;100.00
10261;BME280;5175;42.606;23.388;2022-12-18T07:34:33;94881.59;;;4.30;100.00
10261;BME280;5175;42.606;23.388;2022-12-18T07:37:00;94892.66;;;4.46;100.00
10261;BME280;5175;42.606;23.388;2022-12-18T07:39:29;94895.53;;;4.44;100.00
10261;BME280;5175;42.606;23.388;2022-12-18T07:41:56;94911.88;;;4.28;100.00
10261;BME280;5175;42.606;23.388;2022-12-18T07:44:40;94906.59;;;4.28;100.00
10261;BME280;5175;42.606;23.388;2022-12-18T07:47:07;94907.38;;;4.35;100.00
10261;BME280;5175;42.606;23.388;2022-12-18T07:49:34;94913.03;;;4.38;100.00
10261;BME280;5175;42.606;23.388;2022-12-18T07:52:00;94916.13;;;4.29;100.00
10261;BME280;5175;42.606;23.388;2022-12-18T07:54:29;94911.88;;;4.28;100.00
10261;BME280;5175;42.606;23.388;2022-12-18T07:56:55;94915.50;;;4.33;100.00
10261;BME280;5175;42.606;23.388;2022-12-18T07:59:22;94916.31;;;4.34;100.00
10261;BME280;5175;42.606;23.388;2022-12-18T08:01:49;94913.66;;;4.34;100.00
10261;BME280;5175;42.606;23.388;2022-12-18T08:04:16;94912.75;;;4.53;100.00
10261;BME280;5175;42.606;23.388;2022-12-18T08:06:42;94929.09;;;4.68;100.00
10261;BME280;5175;42.606;23.388;2022-12-18T08:09:09;94928.75;;;4.65;100.00
10261;BME280;5175;42.606;23.388;2022-12-18T08:11:37;94942.97;;;4.64;100.00
10261;BME280;5175;42.606;23.388;2022-12-18T08:14:05;94938.75;;;4.56;100.00
10261;BME280;5175;42.606;23.388;2022-12-18T08:16:32;94939.72;;;4.62;100.00
10261;BME280;5175;42.606;23.388;2022-12-18T08:18:59;94956.28;;;4.82;100.00
10261;BME280;5175;42.606;23.388;2022-12-18T08:21:28;94967.41;;;4.90;100.00
10261;BME280;5175;42.606;23.388;2022-12-18T08:23:57;94957.13;;;4.76;100.00
10261;BME280;5175;42.606;23.388;2022-12-18T08:26:26;94957.28;;;4.81;100.00
10261;BME280;5175;42.606;23.388;2022-12-18T08:28:56;94960.31;;;4.84;100.00
10261;BME280;5175;42.606;23.388;2022-12-18T08:31:23;94967.03;;;4.80;100.00
10261;BME280;5175;42.606;23.388;2022-12-18T08:33:51;94969.16;;;4.72;100.00
10261;BME280;5175;42.606;23.388;2022-12-18T08:36:18;94967.50;;;4.71;100.00
10261;BME280;5175;42.606;23.388;2022-12-18T08:38:45;94975.56;;;4.51;100.00
10261;BME280;5175;42.606;23.388;2022-12-18T08:41:13;94972.41;;;4.36;100.00
10261;BME280;5175;42.606;23.388;2022-12-18T08:43:41;94971.00;;;4.33;100.00
10261;BME280;5175;42.606;23.388;2022-12-18T08:46:27;94964.91;;;4.33;100.00
10261;BME280;5175;42.606;23.388;2022-12-18T08:49:00;94964.91;;;4.33;100.00
10261;BME280;5175;42.606;23.388;2022-12-18T08:51:26;94960.94;;;4.49;100.00
10261;BME280;5175;42.606;23.388;2022-12-18T08:53:53;94964.34;;;4.56;100.00
10261;BME280;5175;42.606;23.388;2022-12-18T08:56:20;94968.16;;;4.66;100.00
10261;BME280;5175;42.606;23.388;2022-12-18T08:58:47;94974.00;;;4.43;100.00
10261;BME280;5175;42.606;23.388;2022-12-18T09:01:13;94964.50;;;4.29;100.00
10261;BME280;5175;42.606;23.388;2022-12-18T09:03:42;94976.44;;;4.38;100.00
10261;BME280;5175;42.606;23.388;2022-12-18T09:06:08;94976.81;;;4.42;100.00
10261;BME280;5175;42.606;23.388;2022-12-18T09:08:35;94972.75;;;4.46;100.00
10261;BME280;5175;42.606;23.388;2022-12-18T09:11:03;94954.91;;;4.41;100.00
10261;BME280;5175;42.606;23.388;2022-12-18T09:13:30;94962.72;;;4.61;100.00
10261;BME280;5175;42.606;23.388;2022-12-18T09:15:56;94967.41;;;4.53;100.00
10261;BME280;5175;42.606;23.388;2022-12-18T09:18:24;94969.66;;;4.56;100.00
10261;BME280;5175;42.606;23.388;2022-12-18T09:20:54;94964.25;;;4.37;100.00
10261;BME280;5175;42.606;23.388;2022-12-18T09:23:21;94962.13;;;4.53;100.00
10261;BME280;5175;42.606;23.388;2022-12-18T09:25:48;94961.13;;;4.54;100.00
10261;BME280;5175;42.606;23.388;2022-12-18T09:28:17;94967.00;;;4.56;100.00
10261;BME280;5175;42.606;23.388;2022-12-18T09:30:46;94966.19;;;4.55;100.00
10261;BME280;5175;42.606;23.388;2022-12-18T09:33:14;94968.50;;;4.76;100.00
10261;BME280;5175;42.606;23.388;2022-12-18T09:35:42;94974.94;;;4.87;100.00
10261;BME280;5175;42.606;23.388;2022-12-18T09:38:13;94952.31;;;4.66;100.00
10261;BME280;5175;42.606;23.388;2022-12-18T09:40:43;94983.72;;;4.81;100.00
10261;BME280;5175;42.606;23.388;2022-12-18T09:43:16;94979.50;;;4.73;100.00
10261;BME280;5175;42.606;23.388;2022-12-18T09:45:46;94972.94;;;4.44;100.00
10261;BME280;5175;42.606;23.388;2022-12-18T09:48:18;94979.97;;;4.26;100.00
10261;BME280;5175;42.606;23.388;2022-12-18T09:50:48;94950.56;;;4.09;100.00
10261;BME280;5175;42.606;23.388;2022-12-18T09:53:21;94914.13;;;3.80;100.00
10261;BME280;5175;42.606;23.388;2022-12-18T09:55:51;94971.38;;;4.37;100.00
10261;BME280;5175;42.606;23.388;2022-12-18T09:58:26;94975.56;;;4.51;100.00
10261;BME280;5175;42.606;23.388;2022-12-18T10:00:55;94938.50;;;4.26;100.00
10261;BME280;5175;42.606;23.388;2022-12-18T10:03:23;94964.78;;;4.53;100.00
10261;BME280;5175;42.606;23.388;2022-12-18T10:05:56;94972.38;;;4.74;100.00
10261;BME280;5175;42.606;23.388;2022-12-18T10:08:34;94972.13;;;4.82;100.00
10261;BME280;5175;42.606;23.388;2022-12-18T10:11:24;94981.56;;;4.96;100.00
10261;BME280;5175;42.606;23.388;2022-12-18T10:13:57;94975.50;;;4.95;100.00
10261;BME280;5175;42.606;23.388;2022-12-18T10:16:32;94975.59;;;5.07;100.00
10261;BME280;5175;42.606;23.388;2022-12-18T10:19:15;94977.66;;;5.05;100.00
10261;BME280;5175;42.606;23.388;2022-12-18T10:21:48;94977.56;;;5.18;100.00
10261;BME280;5175;42.606;23.388;2022-12-18T10:24:24;94997.31;;;5.16;100.00
10261;BME280;5175;42.606;23.388;2022-12-18T10:26:59;94983.72;;;5.12;100.00
10261;BME280;5175;42.606;23.388;2022-12-18T10:29:31;94982.84;;;5.18;100.00
10261;BME280;5175;42.606;23.388;2022-12-18T10:31:57;94987.66;;;5.28;100.00
10261;BME280;5175;42.606;23.388;2022-12-18T10:34:24;94986.03;;;5.27;100.00
10261;BME280;5175;42.606;23.388;2022-12-18T10:36:51;94970.09;;;5.08;100.00
10261;BME280;5175;42.606;23.388;2022-12-18T10:39:21;94983.72;;;5.12;100.00
10261;BME280;5175;42.606;23.388;2022-12-18T10:41:48;94984.13;;;5.09;100.00
10261;BME280;5175;42.606;23.388;2022-12-18T10:44:17;94975.72;;;5.19;100.00
10261;BME280;5175;42.606;23.388;2022-12-18T10:46:46;94970.72;;;5.11;100.00
10261;BME280;5175;42.606;23.388;2022-12-18T10:49:22;94973.28;;;5.17;100.00
10261;BME280;5175;42.606;23.388;2022-12-18T10:51:51;94974.09;;;4.93;100.00
10261;BME280;5175;42.606;23.388;2022-12-18T10:54:21;94971.25;;;4.88;100.00
10261;BME280;5175;42.606;23.388;2022-12-18T10:56:49;94971.81;;;4.96;100.00
10261;BME280;5175;42.606;23.388;2022-12-18T10:59:17;94971.06;;;4.89;100.00
10261;BME280;5175;42.606;23.388;2022-12-18T11:01:49;94969.75;;;4.98;100.00
10261;BME280;5175;42.606;23.388;2022-12-18T11:04:19;94972.72;;;4.84;100.00
10261;BME280;5175;42.606;23.388;2022-12-18T11:06:58;94965.94;;;4.94;100.00
10261;BME280;5175;42.606;23.388;2022-12-18T11:09:27;94965.94;;;4.63;100.00
10261;BME280;5175;42.606;23.388;2022-12-18T11:11:56;94970.91;;;4.78;100.00
10261;BME280;5175;42.606;23.388;2022-12-18T11:14:26;94977.91;;;4.66;100.00
10261;BME280;5175;42.606;23.388;2022-12-18T11:16:54;94957.50;;;4.48;100.00
10261;BME280;5175;42.606;23.388;2022-12-18T11:19:30;94975.16;;;4.54;100.00
10261;BME280;5175;42.606;23.388;2022-12-18T11:21:59;94981.22;;;4.61;100.00
10261;BME280;5175;42.606;23.388;2022-12-18T11:24:30;94979.88;;;4.46;100.00
10261;BME280;5175;42.606;23.388;2022-12-18T11:27:01;94986.13;;;4.51;100.00
10261;BME280;5175;42.606;23.388;2022-12-18T11:29:33;94977.94;;;4.21;100.00
10261;BME280;5175;42.606;23.388;2022-12-18T11:35:14;94931.19;;;3.84;100.00
10261;BME280;5175;42.606;23.388;2022-12-18T11:37:47;94968.22;;;4.15;100.00
10261;BME280;5175;42.606;23.388;2022-12-18T11:40:30;94980.50;;;4.41;100.00
10261;BME280;5175;42.606;23.388;2022-12-18T11:43:06;94967.47;;;4.46;100.00
10261;BME280;5175;42.606;23.388;2022-12-18T11:45:35;94973.75;;;4.45;100.00
10261;BME280;5175;42.606;23.388;2022-12-18T11:48:14;94989.69;;;4.32;100.00
10261;BME280;5175;42.606;23.388;2022-12-18T11:50:48;94980.94;;;4.31;100.00
10261;BME280;5175;42.606;23.388;2022-12-18T11:53:15;94979.66;;;4.47;100.00
10261;BME280;5175;42.606;23.388;2022-12-18T11:55:49;94993.00;;;4.59;100.00
10261;BME280;5175;42.606;23.388;2022-12-18T11:58:29;94979.91;;;4.39;100.00
10261;BME280;5175;42.606;23.388;2022-12-18T12:01:03;94994.59;;;4.66;100.00
10261;BME280;5175;42.606;23.388;2022-12-18T12:03:50;94995.44;;;4.60;100.00
10261;BME280;5175;42.606;23.388;2022-12-18T12:06:22;94979.22;;;4.57;100.00
10261;BME280;5175;42.606;23.388;2022-12-18T12:09:00;95003.75;;;4.64;100.00
10261;BME280;5175;42.606;23.388;2022-12-18T12:11:41;94996.72;;;4.44;100.00
10261;BME280;5175;42.606;23.388;2022-12-18T12:17:06;94995.47;;;4.54;100.00
10261;BME280;5175;42.606;23.388;2022-12-18T12:19:43;94993.34;;;4.69;100.00
10261;BME280;5175;42.606;23.388;2022-12-18T12:22:20;94983.56;;;4.38;100.00
10261;BME280;5175;42.606;23.388;2022-12-18T12:24:57;95003.19;;;4.55;100.00
10261;BME280;5175;42.606;23.388;2022-12-18T12:27:38;94998.28;;;4.59;100.00
10261;BME280;5175;42.606;23.388;2022-12-18T12:30:10;94987.75;;;4.52;100.00
10261;BME280;5175;42.606;23.388;2022-12-18T12:32:55;94996.66;;;4.64;100.00
10261;BME280;5175;42.606;23.388;2022-12-18T12:35:38;95004.59;;;4.58;100.00
10261;BME280;5175;42.606;23.388;2022-12-18T12:38:13;95007.34;;;4.38;100.00
10261;BME280;5175;42.606;23.388;2022-12-18T12:40:45;94998.00;;;4.35;100.00
10261;BME280;5175;42.606;23.388;2022-12-18T12:43:25;94993.31;;;4.44;100.00
10261;BME280;5175;42.606;23.388;2022-12-18T12:45:55;94989.97;;;4.55;100.00
10261;BME280;5175;42.606;23.388;2022-12-18T12:48:35;94993.59;;;4.61;100.00
10261;BME280;5175;42.606;23.388;2022-12-18T12:51:08;95002.03;;;4.82;100.00
10261;BME280;5175;42.606;23.388;2022-12-18T12:53:37;95007.06;;;4.90;100.00
10261;BME280;5175;42.606;23.388;2022-12-18T12:56:08;95012.78;;;4.87;100.00
10261;BME280;5175;42.606;23.388;2022-12-18T12:58:45;95017.28;;;4.80;100.00
10261;BME280;5175;42.606;23.388;2022-12-18T13:01:23;95019.13;;;4.80;100.00
10261;BME280;5175;42.606;23.388;2022-12-18T13:04:02;95013.88;;;4.73;100.00
10261;BME280;5175;42.606;23.388;2022-12-18T13:06:40;95026.75;;;4.94;100.00
10261;BME280;5175;42.606;23.388;2022-12-18T13:09:09;95028.00;;;4.92;100.00
10261;BME280;5175;42.606;23.388;2022-12-18T13:11:37;95027.66;;;4.82;100.00
10261;BME280;5175;42.606;23.388;2022-12-18T13:14:34;95031.03;;;4.58;100.00
10261;BME280;5175;42.606;23.388;2022-12-18T13:17:25;95038.25;;;4.75;100.00
10261;BME280;5175;42.606;23.388;2022-12-18T13:20:05;95031.13;;;4.82;100.00